Takatori — JL6597 — position and weather

sailwx.info

Track history (hours):
 
Tides and Currents Weather Stations Pressure Air Temp Water Temp Dewpoint Dewpoint Depression Visibility Wind Speed Wind Dir Waves Ship Positions

Takatori

Last reported at 2017-Oct-20 05:43 UTC. Time now 2017-Oct-23 00:42 UTC.
Position N 34°36' E 135°03'.

Length 74 m; draft 4 m.

Type: Cargo ship. MMSI: 431501607.

Date/timePositionNaut miles runAvg speedWind from/ knotsBaromVisibWave heightAir tempDewpointWater temp
2017-Oct-20 05:43N 34°36' E 135°03'3 9.4
2017-Oct-20 05:26N 34°36' E 135°07'511.7
2017-Oct-20 04:59N 34°37' E 135°13'2 4.7
2017-Oct-20 04:30N 34°39' E 135°15'0 0.0
2017-Oct-20 04:00N 34°39' E 135°15'0 0.0
2017-Oct-20 03:30N 34°39' E 135°15'0 0.1
2017-Oct-20 02:54N 34°39' E 135°15'0 0.1
2017-Oct-20 02:30N 34°39' E 135°15'1 1.3
2017-Oct-20 01:56N 34°39' E 135°15'0 0.5
2017-Oct-20 01:28N 34°39' E 135°15'2 4.6
2017-Oct-20 00:58N 34°41' E 135°17'2 4.1
2017-Oct-20 00:30N 34°40' E 135°19'5 9.5
2017-Oct-20 00:00N 34°38' E 135°24'1 1.6
2017-Oct-19 23:25N 34°38' E 135°25'0 0.0
2017-Oct-19 22:55N 34°38' E 135°25'0 0.1
2017-Oct-19 22:29N 34°38' E 135°25'2 2.6
2017-Oct-19 21:53N 34°37' E 135°23'0 0.0
2017-Oct-19 20:59N 34°37' E 135°23'0 0.0
2017-Oct-19 20:29N 34°37' E 135°23'0 0.0
2017-Oct-19 19:59N 34°37' E 135°23'2 4.2
2017-Oct-19 19:30N 34°37' E 135°21'611.1
2017-Oct-19 19:00N 34°36' E 135°14'611.6
2017-Oct-19 18:30N 34°35' E 135°07'2 0.0
2017-Oct-18 02:07N 34°36' E 135°08'112.7
2017-Oct-18 02:00N 34°37' E 135°09'510.5
2017-Oct-18 01:30N 34°39' E 135°15'0 0.2
2017-Oct-18 00:58N 34°39' E 135°15'1 1.3
2017-Oct-18 00:28N 34°39' E 135°15'1 2.4
2017-Oct-18 00:01N 34°39' E 135°17'612.1
2017-Oct-17 23:30N 34°38' E 135°24'0 0.8
2017-Oct-17 22:56N 34°38' E 135°25'0 0.0
2017-Oct-17 22:26N 34°38' E 135°25'0 1.0
2017-Oct-17 22:00N 34°38' E 135°24'2 2.4
2017-Oct-17 21:23N 34°37' E 135°23'0 0.0
2017-Oct-17 20:59N 34°37' E 135°23'0 0.0
2017-Oct-17 19:41N 34°37' E 135°23'0 0.0
2017-Oct-17 19:29N 34°37' E 135°23'0 0.0
2017-Oct-17 18:59N 34°37' E 135°23'0 0.0
2017-Oct-17 18:23N 34°37' E 135°23'0 0.0
2017-Oct-17 17:59N 34°37' E 135°23'0 0.0
2017-Oct-17 17:29N 34°37' E 135°23'3 5.9
2017-Oct-17 17:00N 34°36' E 135°19'611.9
2017-Oct-17 16:30N 34°35' E 135°12'613.0
2017-Oct-17 16:00N 34°35' E 135°04'1 0.0
2017-Oct-16 07:34N 34°36' E 135°05'111.4
2017-Oct-16 07:28N 34°36' E 135°06'612.0
2017-Oct-16 06:59N 34°37' E 135°13'4 8.2
2017-Oct-16 06:29N 34°41' E 135°16'0 0.0
2017-Oct-16 06:00N 34°41' E 135°16'1 1.1
2017-Oct-16 05:28N 34°41' E 135°16'0 0.0
2017-Oct-16 04:58N 34°41' E 135°16'0 0.0
2017-Oct-16 04:30N 34°41' E 135°16'0 0.0
2017-Oct-16 04:00N 34°41' E 135°16'0 0.0
2017-Oct-16 03:30N 34°41' E 135°16'0 0.0
2017-Oct-16 02:54N 34°41' E 135°16'0 0.0
2017-Oct-16 02:18N 34°41' E 135°16'0 0.0
2017-Oct-16 02:00N 34°41' E 135°16'0 0.8
2017-Oct-16 01:25N 34°41' E 135°17'2 4.0
2017-Oct-16 01:00N 34°40' E 135°15'1 1.1
2017-Oct-16 00:19N 34°39' E 135°15'0 0.4
2017-Oct-16 00:00N 34°39' E 135°15'0 0.1
2017-Oct-15 23:26N 34°39' E 135°15'1 2.4
2017-Oct-15 23:00N 34°40' E 135°15'2 3.5
2017-Oct-15 22:27N 34°41' E 135°13'0 0.0
2017-Oct-15 21:51N 34°41' E 135°13'0 0.0
2017-Oct-15 21:21N 34°41' E 135°13'0 0.0
2017-Oct-15 20:45N 34°41' E 135°13'0 0.0
2017-Oct-15 20:27N 34°41' E 135°13'0 0.0
2017-Oct-15 19:57N 34°41' E 135°13'0 0.0
2017-Oct-15 19:21N 34°41' E 135°13'0 0.0
2017-Oct-15 18:57N 34°41' E 135°13'0 0.0
2017-Oct-15 18:21N 34°41' E 135°13'0 0.0
2017-Oct-15 17:45N 34°41' E 135°13'0 0.0
2017-Oct-15 17:21N 34°41' E 135°13'0 0.0
2017-Oct-15 16:57N 34°41' E 135°13'0 0.0
2017-Oct-15 16:27N 34°41' E 135°13'0 0.0
2017-Oct-15 15:57N 34°41' E 135°13'0 0.0
2017-Oct-15 15:27N 34°41' E 135°13'0 0.0
2017-Oct-15 14:45N 34°41' E 135°13'0 0.0
2017-Oct-15 13:51N 34°41' E 135°13'0 0.0
2017-Oct-15 13:15N 34°41' E 135°13'0 0.0
2017-Oct-15 12:57N 34°41' E 135°13'0 0.0
2017-Oct-15 12:27N 34°41' E 135°13'0 0.0
2017-Oct-15 11:57N 34°41' E 135°13'0 0.0
2017-Oct-15 11:27N 34°41' E 135°13'0 0.0
2017-Oct-15 10:57N 34°41' E 135°13'0 0.0
2017-Oct-15 10:27N 34°41' E 135°13'0 0.0
2017-Oct-15 09:57N 34°41' E 135°13'0 0.0
2017-Oct-15 09:27N 34°41' E 135°13'0 0.0
2017-Oct-15 08:57N 34°41' E 135°13'0 0.0
2017-Oct-15 08:27N 34°41' E 135°13'0 0.0
2017-Oct-15 07:57N 34°41' E 135°13'0 0.0
2017-Oct-15 07:21N 34°41' E 135°13'0 0.0
2017-Oct-15 06:57N 34°41' E 135°13'0 0.0
2017-Oct-15 06:27N 34°41' E 135°13'0 0.0
2017-Oct-15 05:57N 34°41' E 135°13'0 0.0
2017-Oct-15 05:27N 34°41' E 135°13'0 0.0
2017-Oct-15 04:57N 34°41' E 135°13'0 0.0
2017-Oct-15 04:27N 34°41' E 135°13'0 0.0
2017-Oct-15 03:57N 34°41' E 135°13'0 0.0
2017-Oct-15 03:27N 34°41' E 135°13'0 0.0
2017-Oct-15 02:57N 34°41' E 135°13'0 0.0
2017-Oct-15 02:27N 34°41' E 135°13'0 0.0
2017-Oct-15 01:57N 34°41' E 135°13'0 0.0
2017-Oct-15 01:21N 34°41' E 135°13'0 0.0
2017-Oct-15 00:57N 34°41' E 135°13'0 0.0
2017-Oct-15 00:26N 34°41' E 135°13'0 0.0
2017-Oct-14 23:56N 34°41' E 135°13'0 0.0
2017-Oct-14 23:26N 34°41' E 135°13'0 0.0
2017-Oct-14 22:56N 34°41' E 135°13'0 0.0
2017-Oct-14 22:26N 34°41' E 135°13'0 0.0
2017-Oct-14 21:56N 34°41' E 135°13'0 0.0
2017-Oct-14 21:26N 34°41' E 135°13'0 0.0
2017-Oct-14 20:50N 34°41' E 135°13'0 0.0
2017-Oct-14 20:26N 34°41' E 135°13'0 0.0
2017-Oct-14 19:50N 34°41' E 135°13'0 0.0
2017-Oct-14 19:26N 34°41' E 135°13'0 0.0
2017-Oct-14 18:56N 34°41' E 135°13'0 0.0
2017-Oct-14 18:26N 34°41' E 135°13'0 0.0
2017-Oct-14 17:50N 34°41' E 135°13'0 0.0
2017-Oct-14 17:26N 34°41' E 135°13'0 0.0
2017-Oct-14 16:56N 34°41' E 135°13'0 0.0
2017-Oct-14 16:26N 34°41' E 135°13'0 0.0
2017-Oct-14 15:56N 34°41' E 135°13'0 0.0
2017-Oct-14 15:26N 34°41' E 135°13'0 0.0
2017-Oct-14 14:50N 34°41' E 135°13'1 2.3
2017-Oct-14 14:30N 34°41' E 135°14'4 7.7
2017-Oct-14 14:00N 34°37' E 135°13'611.8
2017-Oct-14 13:30N 34°35' E 135°07'1 0.0
2017-Oct-13 05:15N 34°36' E 135°07'311.8
2017-Oct-13 04:58N 34°37' E 135°11'4 7.6
2017-Oct-13 04:30N 34°39' E 135°15'0 0.0
2017-Oct-13 03:48N 34°39' E 135°15'0 0.0
2017-Oct-13 03:18N 34°39' E 135°15'0 0.0
2017-Oct-13 03:00N 34°39' E 135°15'0 0.1
2017-Oct-13 02:27N 34°39' E 135°15'2 3.6
2017-Oct-13 02:00N 34°41' E 135°16'1 1.1
2017-Oct-13 01:16N 34°41' E 135°17'0 1.0
2017-Oct-13 01:00N 34°41' E 135°16'3 5.0
2017-Oct-13 00:29N 34°40' E 135°19'4 8.8
2017-Oct-13 00:00N 34°38' E 135°24'1 1.5
2017-Oct-12 23:27N 34°38' E 135°25'0 0.9
2017-Oct-12 22:57N 34°37' E 135°24'510.3
2017-Oct-12 22:28N 34°35' E 135°19'511.3
2017-Oct-12 21:59N 34°35' E 135°12'611.9
2017-Oct-12 21:30N 34°35' E 135°05'11 0.2
2017-Oct-10 23:57N 34°41' E 135°16'0 0.0
2017-Oct-10 23:27N 34°41' E 135°16'1 2.3
2017-Oct-10 22:58N 34°40' E 135°15'2 3.5
2017-Oct-10 22:26N 34°42' E 135°13'0 0.0
2017-Oct-10 21:50N 34°42' E 135°13'0 0.0
2017-Oct-10 21:26N 34°42' E 135°13'0 0.0
2017-Oct-10 20:56N 34°42' E 135°13'0 0.0
2017-Oct-10 20:20N 34°42' E 135°13'0 0.0
2017-Oct-10 19:56N 34°42' E 135°13'0 0.0
2017-Oct-10 19:26N 34°42' E 135°13'0 0.0
2017-Oct-10 18:56N 34°42' E 135°13'0 0.0
2017-Oct-10 18:20N 34°42' E 135°13'0 0.0
2017-Oct-10 17:56N 34°42' E 135°13'0 0.0
2017-Oct-10 17:26N 34°42' E 135°13'0 0.0
2017-Oct-10 16:56N 34°42' E 135°13'0 0.0
2017-Oct-10 16:26N 34°42' E 135°13'0 0.0
2017-Oct-10 15:56N 34°42' E 135°13'0 0.0
2017-Oct-10 15:26N 34°42' E 135°13'0 0.0
2017-Oct-10 14:56N 34°42' E 135°13'0 0.0
2017-Oct-10 13:56N 34°42' E 135°13'0 0.0
2017-Oct-10 13:20N 34°42' E 135°13'0 0.0
2017-Oct-10 12:56N 34°42' E 135°13'0 0.0
2017-Oct-10 12:26N 34°42' E 135°13'0 0.0
2017-Oct-10 11:56N 34°42' E 135°13'0 0.0
2017-Oct-10 11:26N 34°42' E 135°13'0 0.0
2017-Oct-10 10:50N 34°42' E 135°13'0 0.0
2017-Oct-10 10:26N 34°42' E 135°13'0 0.0
2017-Oct-10 09:56N 34°42' E 135°13'0 0.0
2017-Oct-10 09:26N 34°42' E 135°13'0 0.0
2017-Oct-10 08:56N 34°42' E 135°13'0 0.0
2017-Oct-10 08:28N 34°42' E 135°13'0 0.0
2017-Oct-10 07:57N 34°42' E 135°13'0 0.0
2017-Oct-10 07:30N 34°42' E 135°13'0 0.0
2017-Oct-10 06:54N 34°42' E 135°13'0 0.0
2017-Oct-10 06:30N 34°42' E 135°13'0 0.0
2017-Oct-10 05:54N 34°42' E 135°13'  
Track history (hours):
 
Tides and Currents Weather Stations Pressure Air Temp Water Temp Dewpoint Dewpoint Depression Visibility Wind Speed Wind Dir Waves Ship Positions

Takatori

Last reported at 2017-Oct-20 05:43 UTC. Time now 2017-Oct-23 00:42 UTC.
Position N 34°36' E 135°03'.

Length 74 m; draft 4 m.

Type: Cargo ship. MMSI: 431501607.

Date/timePositionNaut miles runAvg speedWind from/ knotsBaromVisibWave heightAir tempDewpointWater temp
2017-Oct-20 05:43N 34°36' E 135°03'3 9.4
2017-Oct-20 05:26N 34°36' E 135°07'511.7
2017-Oct-20 04:59N 34°37' E 135°13'2 4.7
2017-Oct-20 04:30N 34°39' E 135°15'0 0.0
2017-Oct-20 04:00N 34°39' E 135°15'0 0.0
2017-Oct-20 03:30N 34°39' E 135°15'0 0.1
2017-Oct-20 02:54N 34°39' E 135°15'0 0.1
2017-Oct-20 02:30N 34°39' E 135°15'1 1.3
2017-Oct-20 01:56N 34°39' E 135°15'0 0.5
2017-Oct-20 01:28N 34°39' E 135°15'2 4.6
2017-Oct-20 00:58N 34°41' E 135°17'2 4.1
2017-Oct-20 00:30N 34°40' E 135°19'5 9.5
2017-Oct-20 00:00N 34°38' E 135°24'1 1.6
2017-Oct-19 23:25N 34°38' E 135°25'0 0.0
2017-Oct-19 22:55N 34°38' E 135°25'0 0.1
2017-Oct-19 22:29N 34°38' E 135°25'2 2.6
2017-Oct-19 21:53N 34°37' E 135°23'0 0.0
2017-Oct-19 20:59N 34°37' E 135°23'0 0.0
2017-Oct-19 20:29N 34°37' E 135°23'0 0.0
2017-Oct-19 19:59N 34°37' E 135°23'2 4.2
2017-Oct-19 19:30N 34°37' E 135°21'611.1
2017-Oct-19 19:00N 34°36' E 135°14'611.6
2017-Oct-19 18:30N 34°35' E 135°07'2 0.0
2017-Oct-18 02:07N 34°36' E 135°08'112.7
2017-Oct-18 02:00N 34°37' E 135°09'510.5
2017-Oct-18 01:30N 34°39' E 135°15'0 0.2
2017-Oct-18 00:58N 34°39' E 135°15'1 1.3
2017-Oct-18 00:28N 34°39' E 135°15'1 2.4
2017-Oct-18 00:01N 34°39' E 135°17'612.1
2017-Oct-17 23:30N 34°38' E 135°24'0 0.8
2017-Oct-17 22:56N 34°38' E 135°25'0 0.0
2017-Oct-17 22:26N 34°38' E 135°25'0 1.0
2017-Oct-17 22:00N 34°38' E 135°24'2 2.4
2017-Oct-17 21:23N 34°37' E 135°23'0 0.0
2017-Oct-17 20:59N 34°37' E 135°23'0 0.0
2017-Oct-17 19:41N 34°37' E 135°23'0 0.0
2017-Oct-17 19:29N 34°37' E 135°23'0 0.0
2017-Oct-17 18:59N 34°37' E 135°23'0 0.0
2017-Oct-17 18:23N 34°37' E 135°23'0 0.0
2017-Oct-17 17:59N 34°37' E 135°23'0 0.0
2017-Oct-17 17:29N 34°37' E 135°23'3 5.9
2017-Oct-17 17:00N 34°36' E 135°19'611.9
2017-Oct-17 16:30N 34°35' E 135°12'613.0
2017-Oct-17 16:00N 34°35' E 135°04'1 0.0
2017-Oct-16 07:34N 34°36' E 135°05'111.4
2017-Oct-16 07:28N 34°36' E 135°06'612.0
2017-Oct-16 06:59N 34°37' E 135°13'4 8.2
2017-Oct-16 06:29N 34°41' E 135°16'0 0.0
2017-Oct-16 06:00N 34°41' E 135°16'1 1.1
2017-Oct-16 05:28N 34°41' E 135°16'0 0.0
2017-Oct-16 04:58N 34°41' E 135°16'0 0.0
2017-Oct-16 04:30N 34°41' E 135°16'0 0.0
2017-Oct-16 04:00N 34°41' E 135°16'0 0.0
2017-Oct-16 03:30N 34°41' E 135°16'0 0.0
2017-Oct-16 02:54N 34°41' E 135°16'0 0.0
2017-Oct-16 02:18N 34°41' E 135°16'0 0.0
2017-Oct-16 02:00N 34°41' E 135°16'0 0.8
2017-Oct-16 01:25N 34°41' E 135°17'2 4.0
2017-Oct-16 01:00N 34°40' E 135°15'1 1.1
2017-Oct-16 00:19N 34°39' E 135°15'0 0.4
2017-Oct-16 00:00N 34°39' E 135°15'0 0.1
2017-Oct-15 23:26N 34°39' E 135°15'1 2.4
2017-Oct-15 23:00N 34°40' E 135°15'2 3.5
2017-Oct-15 22:27N 34°41' E 135°13'0 0.0
2017-Oct-15 21:51N 34°41' E 135°13'0 0.0
2017-Oct-15 21:21N 34°41' E 135°13'0 0.0
2017-Oct-15 20:45N 34°41' E 135°13'0 0.0
2017-Oct-15 20:27N 34°41' E 135°13'0 0.0
2017-Oct-15 19:57N 34°41' E 135°13'0 0.0
2017-Oct-15 19:21N 34°41' E 135°13'0 0.0
2017-Oct-15 18:57N 34°41' E 135°13'0 0.0
2017-Oct-15 18:21N 34°41' E 135°13'0 0.0
2017-Oct-15 17:45N 34°41' E 135°13'0 0.0
2017-Oct-15 17:21N 34°41' E 135°13'0 0.0
2017-Oct-15 16:57N 34°41' E 135°13'0 0.0
2017-Oct-15 16:27N 34°41' E 135°13'0 0.0
2017-Oct-15 15:57N 34°41' E 135°13'0 0.0
2017-Oct-15 15:27N 34°41' E 135°13'0 0.0
2017-Oct-15 14:45N 34°41' E 135°13'0 0.0
2017-Oct-15 13:51N 34°41' E 135°13'0 0.0
2017-Oct-15 13:15N 34°41' E 135°13'0 0.0
2017-Oct-15 12:57N 34°41' E 135°13'0 0.0
2017-Oct-15 12:27N 34°41' E 135°13'0 0.0
2017-Oct-15 11:57N 34°41' E 135°13'0 0.0
2017-Oct-15 11:27N 34°41' E 135°13'0 0.0
2017-Oct-15 10:57N 34°41' E 135°13'0 0.0
2017-Oct-15 10:27N 34°41' E 135°13'0 0.0
2017-Oct-15 09:57N 34°41' E 135°13'0 0.0
2017-Oct-15 09:27N 34°41' E 135°13'0 0.0
2017-Oct-15 08:57N 34°41' E 135°13'0 0.0
2017-Oct-15 08:27N 34°41' E 135°13'0 0.0
2017-Oct-15 07:57N 34°41' E 135°13'0 0.0
2017-Oct-15 07:21N 34°41' E 135°13'0 0.0
2017-Oct-15 06:57N 34°41' E 135°13'0 0.0
2017-Oct-15 06:27N 34°41' E 135°13'0 0.0
2017-Oct-15 05:57N 34°41' E 135°13'0 0.0
2017-Oct-15 05:27N 34°41' E 135°13'0 0.0
2017-Oct-15 04:57N 34°41' E 135°13'0 0.0
2017-Oct-15 04:27N 34°41' E 135°13'0 0.0
2017-Oct-15 03:57N 34°41' E 135°13'0 0.0
2017-Oct-15 03:27N 34°41' E 135°13'0 0.0
2017-Oct-15 02:57N 34°41' E 135°13'0 0.0
2017-Oct-15 02:27N 34°41' E 135°13'0 0.0
2017-Oct-15 01:57N 34°41' E 135°13'0 0.0
2017-Oct-15 01:21N 34°41' E 135°13'0 0.0
2017-Oct-15 00:57N 34°41' E 135°13'0 0.0
2017-Oct-15 00:26N 34°41' E 135°13'0 0.0
2017-Oct-14 23:56N 34°41' E 135°13'0 0.0
2017-Oct-14 23:26N 34°41' E 135°13'0 0.0
2017-Oct-14 22:56N 34°41' E 135°13'0 0.0
2017-Oct-14 22:26N 34°41' E 135°13'0 0.0
2017-Oct-14 21:56N 34°41' E 135°13'0 0.0
2017-Oct-14 21:26N 34°41' E 135°13'0 0.0
2017-Oct-14 20:50N 34°41' E 135°13'0 0.0
2017-Oct-14 20:26N 34°41' E 135°13'0 0.0
2017-Oct-14 19:50N 34°41' E 135°13'0 0.0
2017-Oct-14 19:26N 34°41' E 135°13'0 0.0
2017-Oct-14 18:56N 34°41' E 135°13'0 0.0
2017-Oct-14 18:26N 34°41' E 135°13'0 0.0
2017-Oct-14 17:50N 34°41' E 135°13'0 0.0
2017-Oct-14 17:26N 34°41' E 135°13'0 0.0
2017-Oct-14 16:56N 34°41' E 135°13'0 0.0
2017-Oct-14 16:26N 34°41' E 135°13'0 0.0
2017-Oct-14 15:56N 34°41' E 135°13'0 0.0
2017-Oct-14 15:26N 34°41' E 135°13'0 0.0
2017-Oct-14 14:50N 34°41' E 135°13'1 2.3
2017-Oct-14 14:30N 34°41' E 135°14'4 7.7
2017-Oct-14 14:00N 34°37' E 135°13'611.8
2017-Oct-14 13:30N 34°35' E 135°07'1 0.0
2017-Oct-13 05:15N 34°36' E 135°07'311.8
2017-Oct-13 04:58N 34°37' E 135°11'4 7.6
2017-Oct-13 04:30N 34°39' E 135°15'0 0.0
2017-Oct-13 03:48N 34°39' E 135°15'0 0.0
2017-Oct-13 03:18N 34°39' E 135°15'0 0.0
2017-Oct-13 03:00N 34°39' E 135°15'0 0.1
2017-Oct-13 02:27N 34°39' E 135°15'2 3.6
2017-Oct-13 02:00N 34°41' E 135°16'1 1.1
2017-Oct-13 01:16N 34°41' E 135°17'0 1.0
2017-Oct-13 01:00N 34°41' E 135°16'3 5.0
2017-Oct-13 00:29N 34°40' E 135°19'4 8.8
2017-Oct-13 00:00N 34°38' E 135°24'1 1.5
2017-Oct-12 23:27N 34°38' E 135°25'0 0.9
2017-Oct-12 22:57N 34°37' E 135°24'510.3
2017-Oct-12 22:28N 34°35' E 135°19'511.3
2017-Oct-12 21:59N 34°35' E 135°12'611.9
2017-Oct-12 21:30N 34°35' E 135°05'11 0.2
2017-Oct-10 23:57N 34°41' E 135°16'0 0.0
2017-Oct-10 23:27N 34°41' E 135°16'1 2.3
2017-Oct-10 22:58N 34°40' E 135°15'2 3.5
2017-Oct-10 22:26N 34°42' E 135°13'0 0.0
2017-Oct-10 21:50N 34°42' E 135°13'0 0.0
2017-Oct-10 21:26N 34°42' E 135°13'0 0.0
2017-Oct-10 20:56N 34°42' E 135°13'0 0.0
2017-Oct-10 20:20N 34°42' E 135°13'0 0.0
2017-Oct-10 19:56N 34°42' E 135°13'0 0.0
2017-Oct-10 19:26N 34°42' E 135°13'0 0.0
2017-Oct-10 18:56N 34°42' E 135°13'0 0.0
2017-Oct-10 18:20N 34°42' E 135°13'0 0.0
2017-Oct-10 17:56N 34°42' E 135°13'0 0.0
2017-Oct-10 17:26N 34°42' E 135°13'0 0.0
2017-Oct-10 16:56N 34°42' E 135°13'0 0.0
2017-Oct-10 16:26N 34°42' E 135°13'0 0.0
2017-Oct-10 15:56N 34°42' E 135°13'0 0.0
2017-Oct-10 15:26N 34°42' E 135°13'0 0.0
2017-Oct-10 14:56N 34°42' E 135°13'0 0.0
2017-Oct-10 13:56N 34°42' E 135°13'0 0.0
2017-Oct-10 13:20N 34°42' E 135°13'0 0.0
2017-Oct-10 12:56N 34°42' E 135°13'0 0.0
2017-Oct-10 12:26N 34°42' E 135°13'0 0.0
2017-Oct-10 11:56N 34°42' E 135°13'0 0.0
2017-Oct-10 11:26N 34°42' E 135°13'0 0.0
2017-Oct-10 10:50N 34°42' E 135°13'0 0.0
2017-Oct-10 10:26N 34°42' E 135°13'0 0.0
2017-Oct-10 09:56N 34°42' E 135°13'0 0.0
2017-Oct-10 09:26N 34°42' E 135°13'0 0.0
2017-Oct-10 08:56N 34°42' E 135°13'0 0.0
2017-Oct-10 08:28N 34°42' E 135°13'0 0.0
2017-Oct-10 07:57N 34°42' E 135°13'0 0.0
2017-Oct-10 07:30N 34°42' E 135°13'0 0.0
2017-Oct-10 06:54N 34°42' E 135°13'0 0.0
2017-Oct-10 06:30N 34°42' E 135°13'0 0.0
2017-Oct-10 05:54N 34°42' E 135°13'  

Dump ship's entire track history